Gobernador Crespo, Argentina
Current Conditions -  °F | °C
As of 9:00 AM on Thursday 30 Oct 2014 (Local Time) from SUSO Reporting Station
Broken Clouds Broken Clouds  
Wind Chill: 68°   Ceiling: 20000
Heat Index: 68°   Visibility: 6mi
Dew Point: 64°   Wind: 12mph
Humidity: 88%   Direction: 150°SSE
Pressure: 29.74"   Gusts: NA
Location:  30.38°S, 60.42°W
Report Text: SUSO 301200Z 15010KT 9999 SCT007 SCT060 BKN200 20/18 Q1007
Loading
Personal Weather Stations






























Interactive Weather Map
Tropical Storm Tracking
New forecast layout! Learn more

10-Day Weather Forecast

Advertisements
Track Severe Weather on mobile